createdAt,value
2024-05-09T00:02:34.461Z,3.30
2024-05-09T00:05:37.406Z,3.83
2024-05-09T00:08:40.144Z,2.80
2024-05-09T00:11:42.737Z,3.42
2024-05-09T00:14:45.124Z,3.40
2024-05-09T00:17:47.658Z,3.75
2024-05-09T00:20:50.486Z,3.90
2024-05-09T00:23:53.599Z,3.22
2024-05-09T00:26:55.955Z,3.17
2024-05-09T00:29:59.732Z,3.35
2024-05-09T00:33:02.776Z,3.17
2024-05-09T00:36:08.819Z,3.25
2024-05-09T00:39:11.202Z,3.35
2024-05-09T00:42:13.704Z,3.55
2024-05-09T00:45:16.673Z,2.92
2024-05-09T00:48:21.388Z,3.30
2024-05-09T00:51:24.372Z,2.83
2024-05-09T00:54:27.790Z,2.90
2024-05-09T00:57:30.831Z,3.25
2024-05-09T01:00:38.999Z,3.92
2024-05-09T01:03:44.307Z,4.10
2024-05-09T01:06:49.719Z,3.55
2024-05-09T01:09:52.533Z,3.60
2024-05-09T01:12:54.810Z,3.45
2024-05-09T01:15:58.381Z,3.55
2024-05-09T01:19:02.034Z,3.10
2024-05-09T01:22:04.825Z,3.33
2024-05-09T01:25:07.828Z,3.33
2024-05-09T01:28:10.299Z,4.60
2024-05-09T01:31:16.188Z,4.38
2024-05-09T01:34:20.341Z,3.60
2024-05-09T01:37:22.872Z,3.90
2024-05-09T01:40:35.387Z,3.95
2024-05-09T01:43:40.660Z,3.47
2024-05-09T01:46:43.512Z,4.07
2024-05-09T01:49:46.036Z,3.15
2024-05-09T01:52:48.335Z,3.35
2024-05-09T01:55:51.031Z,2.78
2024-05-09T01:58:53.666Z,4.00
2024-05-09T02:01:57.791Z,3.72
2024-05-09T02:05:00.614Z,3.20
2024-05-09T02:08:03.268Z,3.75
2024-05-09T02:11:05.987Z,3.85
2024-05-09T02:14:08.488Z,3.88
2024-05-09T02:17:11.085Z,3.70
2024-05-09T02:20:22.433Z,3.53
2024-05-09T02:23:29.988Z,4.43
2024-05-09T02:26:32.831Z,3.67
2024-05-09T02:29:35.173Z,4.38
2024-05-09T02:32:37.581Z,3.83
2024-05-09T02:35:40.618Z,4.13
2024-05-09T02:38:43.075Z,3.80
2024-05-09T02:41:45.855Z,3.95
2024-05-09T02:44:48.351Z,4.45
2024-05-09T02:47:51.014Z,3.95
2024-05-09T02:50:54.148Z,4.72
2024-05-09T02:53:56.476Z,4.10
2024-05-09T02:56:58.838Z,3.90
2024-05-09T03:00:01.246Z,4.15
2024-05-09T03:03:04.589Z,4.43
2024-05-09T03:06:07.049Z,4.15
2024-05-09T03:09:10.110Z,4.50
2024-05-09T03:12:12.705Z,4.05
2024-05-09T03:15:15.239Z,4.05
2024-05-09T03:18:17.757Z,5.10
2024-05-09T03:21:20.399Z,4.15
2024-05-09T03:24:22.723Z,3.75
2024-05-09T03:27:25.245Z,4.70
2024-05-09T03:30:36.225Z,4.10
2024-05-09T03:33:44.329Z,5.82
2024-05-09T03:36:47.041Z,5.90
2024-05-09T03:39:49.475Z,5.97
2024-05-09T03:42:51.788Z,5.28
2024-05-09T03:45:54.277Z,6.18
2024-05-09T03:48:58.052Z,6.25
2024-05-09T03:52:06.540Z,6.45
2024-05-09T03:55:08.980Z,6.68
2024-05-09T03:58:14.685Z,6.38
2024-05-09T04:01:20.392Z,7.05
2024-05-09T04:04:22.877Z,5.97
2024-05-09T04:07:26.005Z,5.82
2024-05-09T04:10:33.237Z,6.68
2024-05-09T04:13:37.228Z,6.50
2024-05-09T04:16:39.631Z,6.35
2024-05-09T04:19:42.157Z,7.40
2024-05-09T04:22:45.072Z,6.60
2024-05-09T04:25:47.796Z,7.20
2024-05-09T04:28:51.408Z,7.25
2024-05-09T04:31:54.226Z,7.22
2024-05-09T04:34:57.207Z,7.03
2024-05-09T04:38:00.803Z,7.00
2024-05-09T04:41:04.143Z,7.25
2024-05-09T04:44:07.671Z,6.22
2024-05-09T04:47:10.020Z,7.05
2024-05-09T04:50:17.710Z,7.43
2024-05-09T04:53:27.235Z,7.47
2024-05-09T04:56:30.601Z,7.68
2024-05-09T04:59:33.050Z,7.22
2024-05-09T05:02:37.599Z,7.05
2024-05-09T05:05:41.886Z,8.93
2024-05-09T05:08:46.755Z,8.30
2024-05-09T05:11:49.231Z,8.02
2024-05-09T05:14:51.932Z,7.03
2024-05-09T05:17:55.191Z,6.55
2024-05-09T05:20:58.846Z,6.40
2024-05-09T05:24:01.699Z,6.57
2024-05-09T05:27:04.319Z,6.43
2024-05-09T05:30:12.041Z,6.53
2024-05-09T05:33:22.788Z,8.00
2024-05-09T05:36:25.774Z,6.10
2024-05-09T05:39:28.708Z,7.13
2024-05-09T05:42:31.821Z,7.03
2024-05-09T05:45:34.442Z,5.80
2024-05-09T05:48:37.244Z,6.25
2024-05-09T05:51:40.139Z,6.50
2024-05-09T05:54:42.665Z,7.45
2024-05-09T05:57:45.121Z,7.00
2024-05-09T06:00:48.374Z,6.45
2024-05-09T06:03:51.106Z,6.07
2024-05-09T06:06:54.675Z,5.57
2024-05-09T06:09:57.255Z,6.22
2024-05-09T06:12:59.601Z,7.00
2024-05-09T06:16:05.152Z,6.50
2024-05-09T06:19:08.211Z,6.35
2024-05-09T06:22:11.292Z,6.80
2024-05-09T06:25:13.922Z,6.78
2024-05-09T06:28:16.313Z,6.82
2024-05-09T06:31:18.776Z,6.70
2024-05-09T06:34:21.340Z,7.05
2024-05-09T06:37:23.759Z,6.13
2024-05-09T06:40:35.892Z,5.35
2024-05-09T06:43:41.487Z,5.63
2024-05-09T06:46:46.424Z,6.93
2024-05-09T06:49:49.076Z,6.82
2024-05-09T06:52:51.902Z,6.50
2024-05-09T06:55:54.615Z,5.95
2024-05-09T06:58:57.141Z,5.13
2024-05-09T07:01:59.691Z,5.85
2024-05-09T07:05:02.355Z,5.68
2024-05-09T07:08:05.303Z,5.05
2024-05-09T07:11:08.215Z,5.03
2024-05-09T07:14:10.840Z,5.70
2024-05-09T07:17:14.626Z,4.93
2024-05-09T07:20:23.620Z,4.22
2024-05-09T07:23:35.009Z,4.78
2024-05-09T07:26:37.696Z,4.47
2024-05-09T07:29:40.832Z,5.85
2024-05-09T07:32:45.242Z,6.13
2024-05-09T07:35:48.121Z,4.97
2024-05-09T07:38:50.580Z,5.28
2024-05-09T07:41:53.026Z,4.65
2024-05-09T07:45:06.384Z,5.32
2024-05-09T07:53:08.505Z,4.72
2024-05-09T07:54:53.750Z,5.50
2024-05-09T07:57:56.374Z,5.68
2024-05-09T08:00:58.823Z,5.55
2024-05-09T08:04:01.472Z,5.03
2024-05-09T08:07:04.265Z,3.78
2024-05-09T08:10:10.663Z,3.13
2024-05-09T08:16:18.695Z,3.47
2024-05-09T08:19:21.194Z,4.00
2024-05-09T08:22:23.491Z,3.40
2024-05-09T08:25:25.828Z,4.55
2024-05-09T08:28:29.487Z,3.53
2024-05-09T08:31:32.848Z,2.45
2024-05-09T08:34:35.529Z,3.88
2024-05-09T08:37:40.689Z,2.95
2024-05-09T08:40:43.639Z,3.80
2024-05-09T08:43:47.148Z,2.78
2024-05-09T08:46:52.553Z,2.55
2024-05-09T08:49:59.411Z,2.00
2024-05-09T08:53:02.027Z,2.97
2024-05-09T08:56:10.611Z,2.05
2024-05-09T08:59:21.271Z,2.80
2024-05-09T09:02:26.760Z,2.97
2024-05-09T09:05:31.994Z,2.28
2024-05-09T09:08:34.781Z,2.45
2024-05-09T09:11:37.515Z,2.28
2024-05-09T09:14:39.884Z,3.53
2024-05-09T09:17:43.177Z,3.53
2024-05-09T09:20:45.946Z,3.28
2024-05-09T09:23:48.460Z,3.10
2024-05-09T09:26:51.178Z,1.63
2024-05-09T09:33:12.539Z,2.15
2024-05-09T09:36:20.930Z,2.08
2024-05-09T09:39:29.774Z,2.53
2024-05-09T09:45:53.684Z,2.00
2024-05-09T09:48:57.046Z,1.48
2024-05-09T09:52:02.847Z,2.00
2024-05-09T09:55:06.059Z,1.88
2024-05-09T09:58:13.461Z,2.08
2024-05-09T10:01:19.558Z,2.65
2024-05-09T10:04:24.211Z,1.73
2024-05-09T10:07:34.883Z,1.60
2024-05-09T10:10:38.718Z,2.35
2024-05-09T10:13:43.072Z,2.30
2024-05-09T10:16:45.416Z,2.75
2024-05-09T10:19:48.246Z,2.25
2024-05-09T10:22:51.214Z,2.47
2024-05-09T10:26:01.895Z,2.65
2024-05-09T10:29:18.667Z,2.42
2024-05-09T10:32:22.152Z,2.05
2024-05-09T10:35:26.837Z,1.52
2024-05-09T10:38:30.571Z,2.03
2024-05-09T10:41:33.946Z,2.35
2024-05-09T10:44:41.322Z,2.70
2024-05-09T10:47:43.785Z,2.53
2024-05-09T10:50:47.231Z,1.92
2024-05-09T10:53:50.323Z,2.75
2024-05-09T10:56:58.648Z,2.28
2024-05-09T11:00:00.992Z,2.08
2024-05-09T11:03:04.255Z,2.08
2024-05-09T11:06:07.248Z,2.22
2024-05-09T11:09:10.138Z,2.50
2024-05-09T11:12:13.017Z,2.13
2024-05-09T11:15:16.720Z,2.45
2024-05-09T11:18:26.644Z,1.90
2024-05-09T11:21:30.526Z,1.98
2024-05-09T11:24:34.991Z,2.28
2024-05-09T11:27:37.537Z,1.58
2024-05-09T11:30:42.147Z,2.10
2024-05-09T11:33:47.826Z,2.33
2024-05-09T11:36:50.348Z,2.40
2024-05-09T11:39:54.208Z,1.90
2024-05-09T11:42:58.098Z,2.03
2024-05-09T11:46:01.751Z,2.20
2024-05-09T11:49:04.390Z,2.47
2024-05-09T11:52:06.996Z,1.95
2024-05-09T11:55:09.943Z,3.20
2024-05-09T11:58:14.822Z,2.05
2024-05-09T12:01:20.857Z,2.17
2024-05-09T12:04:23.824Z,1.95
2024-05-09T12:07:26.657Z,1.50
2024-05-09T12:10:33.759Z,1.40
2024-05-09T12:13:38.139Z,2.50
2024-05-09T12:16:45.378Z,2.33
2024-05-09T12:19:47.916Z,2.35
2024-05-09T12:22:50.404Z,2.00
2024-05-09T12:25:53.129Z,1.92
2024-05-09T12:28:55.577Z,2.80
2024-05-09T12:31:58.118Z,1.85
2024-05-09T12:35:00.612Z,1.95
2024-05-09T12:38:03.827Z,1.40
2024-05-09T12:41:06.348Z,2.08
2024-05-09T12:44:08.605Z,2.25
2024-05-09T12:47:13.372Z,1.50
2024-05-09T12:50:24.625Z,1.83
2024-05-09T12:53:33.256Z,2.05
2024-05-09T12:56:37.859Z,1.70
2024-05-09T12:59:42.667Z,1.98
2024-05-09T13:02:45.116Z,1.67
2024-05-09T13:05:47.719Z,2.08
2024-05-09T13:08:51.271Z,2.17
2024-05-09T13:11:53.784Z,1.25
2024-05-09T13:15:00.160Z,1.60
2024-05-09T13:18:06.934Z,1.60
2024-05-09T13:21:09.815Z,1.45
2024-05-09T13:24:15.982Z,1.80
2024-05-09T13:27:20.584Z,3.47
2024-05-09T13:30:29.741Z,1.35
2024-05-09T13:33:41.741Z,2.47
2024-05-09T13:36:45.035Z,2.25
2024-05-09T13:39:48.048Z,1.73
2024-05-09T13:42:50.434Z,1.63
2024-05-09T13:45:55.356Z,1.60
2024-05-09T13:49:01.395Z,1.90
2024-05-09T13:52:03.979Z,1.90
2024-05-09T13:55:10.403Z,1.95
2024-05-09T13:58:13.044Z,2.58
2024-05-09T14:01:15.542Z,2.47
2024-05-09T14:04:18.326Z,1.65
2024-05-09T14:07:23.281Z,1.50
2024-05-09T14:10:30.945Z,1.50
2024-05-09T14:13:36.292Z,1.98
2024-05-09T14:16:44.664Z,1.80
2024-05-09T14:22:51.537Z,3.03
2024-05-09T14:25:59.792Z,2.55
2024-05-09T14:29:02.657Z,2.90
2024-05-09T14:32:06.952Z,1.85
2024-05-09T14:35:09.617Z,1.65
2024-05-09T14:38:12.196Z,2.08
2024-05-09T14:41:15.070Z,2.45
2024-05-09T14:44:18.626Z,2.10
2024-05-09T14:47:21.406Z,1.83
2024-05-09T14:50:34.651Z,2.25
2024-05-09T14:53:40.449Z,2.38
2024-05-09T14:56:42.959Z,2.25
2024-05-09T14:59:45.327Z,2.38
2024-05-09T15:02:48.136Z,2.47
2024-05-09T15:05:52.491Z,2.30
2024-05-09T15:08:59.869Z,1.70
2024-05-09T15:12:03.903Z,2.20
2024-05-09T15:15:07.734Z,2.22
2024-05-09T15:18:11.838Z,2.17
2024-05-09T15:21:16.131Z,1.67
2024-05-09T15:24:18.513Z,2.80
2024-05-09T15:27:21.014Z,1.90
2024-05-09T15:33:31.660Z,1.60
2024-05-09T15:36:35.436Z,2.30
2024-05-09T15:39:38.069Z,2.08
2024-05-09T15:42:43.501Z,2.42
2024-05-09T15:45:48.220Z,2.15
2024-05-09T15:48:51.659Z,3.00
2024-05-09T15:51:55.125Z,2.10
2024-05-09T15:54:57.696Z,2.03
2024-05-09T15:58:01.739Z,1.27
2024-05-09T16:01:09.316Z,1.60
2024-05-09T16:04:11.850Z,2.15
2024-05-09T16:07:14.508Z,2.03
2024-05-09T16:10:22.964Z,2.40
2024-05-09T16:13:29.510Z,1.75
2024-05-09T16:16:32.168Z,1.92
2024-05-09T16:19:34.628Z,3.00
2024-05-09T16:22:37.326Z,4.85
2024-05-09T16:25:45.507Z,2.45
2024-05-09T16:28:48.971Z,2.72
2024-05-09T16:31:51.557Z,1.73
2024-05-09T16:34:54.071Z,3.40
2024-05-09T16:37:57.443Z,4.13
2024-05-09T16:41:00.016Z,3.30
2024-05-09T16:44:04.355Z,2.53
2024-05-09T16:47:06.759Z,3.72
2024-05-09T16:50:10.722Z,1.98
2024-05-09T16:53:15.329Z,2.28
2024-05-09T16:56:19.375Z,2.38
2024-05-09T16:59:23.562Z,2.72
2024-05-09T17:02:26.248Z,3.95
2024-05-09T17:05:36.220Z,2.00
2024-05-09T17:08:43.892Z,2.60
2024-05-09T17:11:46.340Z,2.85
2024-05-09T17:14:48.827Z,3.15
2024-05-09T17:17:51.225Z,3.97
2024-05-09T17:20:54.047Z,4.22
2024-05-09T17:23:57.234Z,3.75
2024-05-09T17:27:01.815Z,3.22
2024-05-09T17:30:06.372Z,2.63
2024-05-09T17:36:17.186Z,3.38
2024-05-09T17:39:19.893Z,3.25
2024-05-09T17:42:22.483Z,3.28
2024-05-09T17:45:26.240Z,3.42
2024-05-09T17:48:29.476Z,3.85
2024-05-09T17:51:33.437Z,4.32
2024-05-09T17:54:35.812Z,4.72
2024-05-09T17:57:38.270Z,5.25
2024-05-09T18:00:42.412Z,4.13
2024-05-09T18:03:48.660Z,5.65
2024-05-09T18:06:51.357Z,3.72
2024-05-09T18:09:54.796Z,3.50
2024-05-09T18:12:57.353Z,3.50
2024-05-09T18:16:00.839Z,3.85
2024-05-09T18:19:06.231Z,4.00
2024-05-09T18:22:09.005Z,5.30
2024-05-09T18:25:13.008Z,5.45
2024-05-09T18:28:17.825Z,4.80
2024-05-09T18:31:20.520Z,4.97
2024-05-09T18:34:24.102Z,4.85
2024-05-09T18:37:26.926Z,4.18
2024-05-09T18:40:34.438Z,4.70
2024-05-09T18:43:45.116Z,6.00
2024-05-09T18:46:53.375Z,4.32
2024-05-09T18:49:55.873Z,4.70
2024-05-09T18:52:58.437Z,4.47
2024-05-09T18:56:01.321Z,4.53
2024-05-09T18:59:05.656Z,4.28
2024-05-09T19:02:12.286Z,6.40
2024-05-09T19:05:15.156Z,6.72
2024-05-09T19:08:20.231Z,6.78
2024-05-09T19:11:23.081Z,6.75
2024-05-09T19:14:27.333Z,6.22
2024-05-09T19:17:34.015Z,6.05
2024-05-09T19:20:37.965Z,4.63
2024-05-09T19:23:47.087Z,5.97
2024-05-09T19:26:54.388Z,6.05
2024-05-09T19:29:57.822Z,5.45
2024-05-09T19:33:00.752Z,5.30
2024-05-09T19:36:03.539Z,4.70
2024-05-09T19:39:06.220Z,6.75
2024-05-09T19:42:09.417Z,6.68
2024-05-09T19:45:13.328Z,6.10
2024-05-09T19:48:16.133Z,6.20
2024-05-09T19:51:18.733Z,6.63
2024-05-09T19:54:21.171Z,6.72
2024-05-09T19:57:23.610Z,5.93
2024-05-09T20:00:32.687Z,5.82
2024-05-09T20:03:38.443Z,6.75
2024-05-09T20:06:41.861Z,6.05
2024-05-09T20:09:44.312Z,5.93
2024-05-09T20:12:46.743Z,4.75
2024-05-09T20:15:50.167Z,6.53
2024-05-09T20:18:52.787Z,5.68
2024-05-09T20:21:55.391Z,5.28
2024-05-09T20:24:59.687Z,4.05
2024-05-09T20:28:02.461Z,4.95
2024-05-09T20:31:07.349Z,5.13
2024-05-09T20:34:10.041Z,4.93
2024-05-09T20:37:12.742Z,4.78
2024-05-09T20:40:25.274Z,4.85
2024-05-09T20:43:34.047Z,4.73
2024-05-09T20:46:37.374Z,4.90
2024-05-09T20:49:39.802Z,4.95
2024-05-09T20:52:42.492Z,5.45
2024-05-09T20:55:45.476Z,6.00
2024-05-09T20:58:48.521Z,4.82
2024-05-09T21:01:51.254Z,5.43
2024-05-09T21:04:53.801Z,5.40
2024-05-09T21:07:56.680Z,4.03
2024-05-09T21:10:59.427Z,5.45
2024-05-09T21:14:01.982Z,5.00
2024-05-09T21:17:04.544Z,6.22
2024-05-09T21:20:11.430Z,5.70
2024-05-09T21:23:16.889Z,5.85
2024-05-09T21:26:20.534Z,5.55
2024-05-09T21:29:23.359Z,4.68
2024-05-09T21:32:26.723Z,5.22
2024-05-09T21:35:29.853Z,7.68
2024-05-09T21:38:32.589Z,5.90
2024-05-09T21:41:35.026Z,5.57
2024-05-09T21:44:37.388Z,5.50
2024-05-09T21:47:39.957Z,4.63
2024-05-09T21:50:43.740Z,5.95
2024-05-09T21:53:46.297Z,5.32
2024-05-09T21:56:49.146Z,4.97
2024-05-09T21:59:51.625Z,4.68
2024-05-09T22:02:55.393Z,5.65
2024-05-09T22:05:57.851Z,5.03
2024-05-09T22:09:05.112Z,4.47
2024-05-09T22:12:10.606Z,5.43
2024-05-09T22:15:13.101Z,4.57
2024-05-09T22:18:15.833Z,5.53
2024-05-09T22:21:18.270Z,5.57
2024-05-09T22:24:20.635Z,4.05
2024-05-09T22:27:23.813Z,3.78
2024-05-09T22:30:34.410Z,4.85
2024-05-09T22:33:41.983Z,4.70
2024-05-09T22:36:45.690Z,4.63
2024-05-09T22:39:48.038Z,4.38
2024-05-09T22:42:50.435Z,4.97
2024-05-09T22:45:56.955Z,4.18
2024-05-09T22:48:59.677Z,4.03
2024-05-09T22:52:02.282Z,4.03
2024-05-09T22:55:05.365Z,3.65
2024-05-09T22:58:08.114Z,3.45
2024-05-09T23:01:15.505Z,3.42
2024-05-09T23:04:18.146Z,3.42
2024-05-09T23:07:20.614Z,3.55
2024-05-09T23:10:31.050Z,4.18
2024-05-09T23:13:37.797Z,4.30
2024-05-09T23:16:41.133Z,4.35
2024-05-09T23:19:43.570Z,3.58
2024-05-09T23:22:46.823Z,4.10
2024-05-09T23:25:50.106Z,3.28
2024-05-09T23:28:52.470Z,3.10
2024-05-09T23:31:54.859Z,3.58
2024-05-09T23:34:57.717Z,3.20
2024-05-09T23:38:00.331Z,3.10
2024-05-09T23:41:03.039Z,2.97
2024-05-09T23:44:05.688Z,3.15
2024-05-09T23:47:10.913Z,3.25
2024-05-09T23:50:20.288Z,3.28
2024-05-09T23:53:26.087Z,2.90
2024-05-09T23:56:28.659Z,3.40
2024-05-09T23:59:33.250Z,3.40
